sensor_id;sensor_type;location;lat;lon;timestamp;P1;durP1;ratioP1;P2;durP2;ratioP2
57573;SDS011;43409;48.858;21.906;2022-08-04T00:01:20;2.92;;;2.63;;
57573;SDS011;43409;48.858;21.906;2022-08-04T00:04:01;3.08;;;2.28;;
57573;SDS011;43409;48.858;21.906;2022-08-04T00:08:55;4.68;;;2.95;;
57573;SDS011;43409;48.858;21.906;2022-08-04T00:11:25;2.63;;;2.20;;
57573;SDS011;43409;48.858;21.906;2022-08-04T00:14:01;3.90;;;2.50;;
57573;SDS011;43409;48.858;21.906;2022-08-04T00:16:32;2.72;;;2.58;;
57573;SDS011;43409;48.858;21.906;2022-08-04T00:19:02;2.67;;;2.47;;
57573;SDS011;43409;48.858;21.906;2022-08-04T00:21:33;2.50;;;2.30;;
57573;SDS011;43409;48.858;21.906;2022-08-04T00:24:02;4.18;;;2.40;;
57573;SDS011;43409;48.858;21.906;2022-08-04T00:26:27;2.70;;;2.50;;
57573;SDS011;43409;48.858;21.906;2022-08-04T00:28:53;2.30;;;2.20;;
57573;SDS011;43409;48.858;21.906;2022-08-04T00:31:20;2.50;;;2.30;;
57573;SDS011;43409;48.858;21.906;2022-08-04T00:33:46;2.70;;;2.17;;
57573;SDS011;43409;48.858;21.906;2022-08-04T00:36:13;2.58;;;2.20;;
57573;SDS011;43409;48.858;21.906;2022-08-04T00:38:41;2.30;;;2.20;;
57573;SDS011;43409;48.858;21.906;2022-08-04T00:51:48;3.08;;;2.50;;
57573;SDS011;43409;48.858;21.906;2022-08-04T00:54:44;8.90;;;2.03;;
57573;SDS011;43409;48.858;21.906;2022-08-04T01:00:59;4.90;;;2.20;;
57573;SDS011;43409;48.858;21.906;2022-08-04T01:12:03;7.40;;;2.13;;
57573;SDS011;43409;48.858;21.906;2022-08-04T01:30:36;2.67;;;2.47;;
57573;SDS011;43409;48.858;21.906;2022-08-04T01:33:11;2.75;;;2.20;;
57573;SDS011;43409;48.858;21.906;2022-08-04T01:35:49;4.15;;;2.42;;
57573;SDS011;43409;48.858;21.906;2022-08-04T01:38:38;4.18;;;2.28;;
57573;SDS011;43409;48.858;21.906;2022-08-04T01:41:13;2.17;;;2.08;;
57573;SDS011;43409;48.858;21.906;2022-08-04T01:43:39;2.55;;;2.35;;
57573;SDS011;43409;48.858;21.906;2022-08-04T01:46:06;3.30;;;2.50;;
57573;SDS011;43409;48.858;21.906;2022-08-04T01:48:37;3.40;;;2.40;;
57573;SDS011;43409;48.858;21.906;2022-08-04T01:51:04;3.92;;;2.47;;
57573;SDS011;43409;48.858;21.906;2022-08-04T01:53:33;2.75;;;2.42;;
57573;SDS011;43409;48.858;21.906;2022-08-04T01:56:00;2.22;;;2.13;;
57573;SDS011;43409;48.858;21.906;2022-08-04T01:58:28;2.67;;;2.08;;
57573;SDS011;43409;48.858;21.906;2022-08-04T02:00:55;3.20;;;1.85;;
57573;SDS011;43409;48.858;21.906;2022-08-04T02:03:26;2.50;;;2.30;;
57573;SDS011;43409;48.858;21.906;2022-08-04T02:05:52;2.22;;;2.00;;
57573;SDS011;43409;48.858;21.906;2022-08-04T02:08:29;2.38;;;2.28;;
57573;SDS011;43409;48.858;21.906;2022-08-04T02:11:21;5.32;;;2.28;;
57573;SDS011;43409;48.858;21.906;2022-08-04T02:13:55;2.80;;;2.42;;
57573;SDS011;43409;48.858;21.906;2022-08-04T02:16:48;2.30;;;2.10;;
57573;SDS011;43409;48.858;21.906;2022-08-04T02:21:45;4.40;;;2.67;;
57573;SDS011;43409;48.858;21.906;2022-08-04T02:24:15;2.17;;;2.08;;
57573;SDS011;43409;48.858;21.906;2022-08-04T02:26:46;3.33;;;2.35;;
57573;SDS011;43409;48.858;21.906;2022-08-04T02:31:45;2.38;;;1.98;;
57573;SDS011;43409;48.858;21.906;2022-08-04T02:36:46;2.17;;;1.98;;
57573;SDS011;43409;48.858;21.906;2022-08-04T02:39:12;2.28;;;2.10;;
57573;SDS011;43409;48.858;21.906;2022-08-04T02:41:43;2.30;;;2.10;;
57573;SDS011;43409;48.858;21.906;2022-08-04T02:44:11;3.35;;;2.15;;
57573;SDS011;43409;48.858;21.906;2022-08-04T02:46:38;2.22;;;2.08;;
57573;SDS011;43409;48.858;21.906;2022-08-04T02:49:07;1.85;;;1.75;;
57573;SDS011;43409;48.858;21.906;2022-08-04T02:51:37;5.03;;;2.22;;
57573;SDS011;43409;48.858;21.906;2022-08-04T02:56:33;4.38;;;2.45;;
57573;SDS011;43409;48.858;21.906;2022-08-04T02:59:01;5.15;;;2.25;;
57573;SDS011;43409;48.858;21.906;2022-08-04T03:01:29;3.33;;;2.30;;
57573;SDS011;43409;48.858;21.906;2022-08-04T03:04:05;2.53;;;2.33;;
57573;SDS011;43409;48.858;21.906;2022-08-04T03:07:09;3.92;;;1.90;;
57573;SDS011;43409;48.858;21.906;2022-08-04T03:21:17;2.17;;;1.90;;
57573;SDS011;43409;48.858;21.906;2022-08-04T03:27:11;4.53;;;1.92;;
57573;SDS011;43409;48.858;21.906;2022-08-04T04:03:47;3.30;;;2.00;;
57573;SDS011;43409;48.858;21.906;2022-08-04T04:06:36;2.03;;;1.80;;
57573;SDS011;43409;48.858;21.906;2022-08-04T04:12:30;2.00;;;1.80;;
57573;SDS011;43409;48.858;21.906;2022-08-04T04:45:53;3.35;;;2.05;;
57573;SDS011;43409;48.858;21.906;2022-08-04T04:51:19;2.88;;;1.77;;
57573;SDS011;43409;48.858;21.906;2022-08-04T04:53:55;2.05;;;1.85;;
57573;SDS011;43409;48.858;21.906;2022-08-04T04:59:12;2.35;;;1.92;;
57573;SDS011;43409;48.858;21.906;2022-08-04T05:04:40;2.63;;;1.80;;
57573;SDS011;43409;48.858;21.906;2022-08-04T05:10:32;2.47;;;2.03;;
57573;SDS011;43409;48.858;21.906;2022-08-04T05:13:08;4.70;;;1.90;;
57573;SDS011;43409;48.858;21.906;2022-08-04T05:15:36;2.00;;;1.77;;
57573;SDS011;43409;48.858;21.906;2022-08-04T05:18:06;6.15;;;2.08;;
57573;SDS011;43409;48.858;21.906;2022-08-04T05:20:39;6.93;;;1.95;;
57573;SDS011;43409;48.858;21.906;2022-08-04T05:23:12;2.53;;;1.88;;
57573;SDS011;43409;48.858;21.906;2022-08-04T05:28:24;5.30;;;1.65;;
57573;SDS011;43409;48.858;21.906;2022-08-04T05:33:46;2.63;;;1.75;;
57573;SDS011;43409;48.858;21.906;2022-08-04T05:36:21;3.22;;;1.70;;
57573;SDS011;43409;48.858;21.906;2022-08-04T05:38:54;2.80;;;1.90;;
57573;SDS011;43409;48.858;21.906;2022-08-04T05:41:25;1.75;;;1.65;;
57573;SDS011;43409;48.858;21.906;2022-08-04T05:43:52;6.47;;;1.80;;
57573;SDS011;43409;48.858;21.906;2022-08-04T05:46:18;4.53;;;1.50;;
57573;SDS011;43409;48.858;21.906;2022-08-04T05:48:44;3.42;;;1.50;;
57573;SDS011;43409;48.858;21.906;2022-08-04T05:51:10;3.85;;;1.60;;
57573;SDS011;43409;48.858;21.906;2022-08-04T05:53:38;1.60;;;1.42;;
57573;SDS011;43409;48.858;21.906;2022-08-04T05:56:08;11.80;;;2.00;;
57573;SDS011;43409;48.858;21.906;2022-08-04T05:58:36;6.93;;;1.67;;
57573;SDS011;43409;48.858;21.906;2022-08-04T06:01:02;5.45;;;2.20;;
57573;SDS011;43409;48.858;21.906;2022-08-04T06:03:30;3.65;;;1.80;;
57573;SDS011;43409;48.858;21.906;2022-08-04T06:05:59;4.50;;;1.63;;
57573;SDS011;43409;48.858;21.906;2022-08-04T06:08:28;7.88;;;1.60;;
57573;SDS011;43409;48.858;21.906;2022-08-04T06:10:55;9.07;;;2.05;;
57573;SDS011;43409;48.858;21.906;2022-08-04T06:13:28;3.53;;;1.70;;
57573;SDS011;43409;48.858;21.906;2022-08-04T06:15:55;6.80;;;1.80;;
57573;SDS011;43409;48.858;21.906;2022-08-04T06:18:23;3.05;;;1.77;;
57573;SDS011;43409;48.858;21.906;2022-08-04T06:20:53;7.38;;;1.90;;
57573;SDS011;43409;48.858;21.906;2022-08-04T06:23:20;11.52;;;1.90;;
57573;SDS011;43409;48.858;21.906;2022-08-04T06:25:54;3.33;;;1.50;;
57573;SDS011;43409;48.858;21.906;2022-08-04T06:28:22;6.20;;;2.25;;
57573;SDS011;43409;48.858;21.906;2022-08-04T06:30:51;2.55;;;1.85;;
57573;SDS011;43409;48.858;21.906;2022-08-04T06:33:19;3.38;;;1.63;;
57573;SDS011;43409;48.858;21.906;2022-08-04T06:35:57;4.18;;;1.80;;
57573;SDS011;43409;48.858;21.906;2022-08-04T06:38:24;4.78;;;1.42;;
57573;SDS011;43409;48.858;21.906;2022-08-04T06:40:52;3.80;;;1.50;;
57573;SDS011;43409;48.858;21.906;2022-08-04T06:43:19;1.70;;;1.60;;
57573;SDS011;43409;48.858;21.906;2022-08-04T06:45:46;1.58;;;1.45;;
57573;SDS011;43409;48.858;21.906;2022-08-04T06:48:13;3.13;;;1.40;;
57573;SDS011;43409;48.858;21.906;2022-08-04T06:50:41;1.60;;;1.50;;
57573;SDS011;43409;48.858;21.906;2022-08-04T06:53:09;1.48;;;1.38;;
57573;SDS011;43409;48.858;21.906;2022-08-04T06:55:35;2.10;;;1.67;;
57573;SDS011;43409;48.858;21.906;2022-08-04T06:58:01;1.55;;;1.45;;
57573;SDS011;43409;48.858;21.906;2022-08-04T07:00:27;1.60;;;1.50;;
57573;SDS011;43409;48.858;21.906;2022-08-04T07:02:54;2.28;;;1.20;;
57573;SDS011;43409;48.858;21.906;2022-08-04T07:05:21;1.60;;;1.50;;
57573;SDS011;43409;48.858;21.906;2022-08-04T07:07:47;1.40;;;1.38;;
57573;SDS011;43409;48.858;21.906;2022-08-04T07:10:13;2.92;;;1.30;;
57573;SDS011;43409;48.858;21.906;2022-08-04T07:12:41;3.85;;;1.55;;
57573;SDS011;43409;48.858;21.906;2022-08-04T07:15:07;1.50;;;1.38;;
57573;SDS011;43409;48.858;21.906;2022-08-04T07:17:34;1.55;;;1.27;;
57573;SDS011;43409;48.858;21.906;2022-08-04T07:20:00;2.63;;;1.15;;
57573;SDS011;43409;48.858;21.906;2022-08-04T07:22:26;1.58;;;1.30;;
57573;SDS011;43409;48.858;21.906;2022-08-04T07:24:53;1.20;;;1.20;;
57573;SDS011;43409;48.858;21.906;2022-08-04T07:27:20;1.52;;;1.20;;
57573;SDS011;43409;48.858;21.906;2022-08-04T07:29:46;1.42;;;1.33;;
57573;SDS011;43409;48.858;21.906;2022-08-04T07:32:12;2.33;;;1.30;;
57573;SDS011;43409;48.858;21.906;2022-08-04T07:34:40;1.88;;;1.30;;
57573;SDS011;43409;48.858;21.906;2022-08-04T07:37:06;1.52;;;1.20;;
57573;SDS011;43409;48.858;21.906;2022-08-04T07:39:31;1.10;;;1.10;;
57573;SDS011;43409;48.858;21.906;2022-08-04T07:41:58;3.15;;;1.20;;
57573;SDS011;43409;48.858;21.906;2022-08-04T07:44:25;1.15;;;1.05;;
57573;SDS011;43409;48.858;21.906;2022-08-04T07:46:51;5.20;;;1.10;;
57573;SDS011;43409;48.858;21.906;2022-08-04T07:49:17;1.27;;;1.17;;
57573;SDS011;43409;48.858;21.906;2022-08-04T07:51:44;1.55;;;1.42;;
57573;SDS011;43409;48.858;21.906;2022-08-04T07:54:10;3.97;;;1.05;;
57573;SDS011;43409;48.858;21.906;2022-08-04T07:56:38;1.45;;;1.35;;
57573;SDS011;43409;48.858;21.906;2022-08-04T07:59:05;1.52;;;1.42;;
57573;SDS011;43409;48.858;21.906;2022-08-04T08:01:31;1.13;;;1.02;;
57573;SDS011;43409;48.858;21.906;2022-08-04T08:03:59;1.33;;;1.20;;
57573;SDS011;43409;48.858;21.906;2022-08-04T08:06:25;1.23;;;1.13;;
57573;SDS011;43409;48.858;21.906;2022-08-04T08:08:53;0.80;;;0.80;;
57573;SDS011;43409;48.858;21.906;2022-08-04T08:11:19;0.95;;;0.93;;
57573;SDS011;43409;48.858;21.906;2022-08-04T08:13:45;1.30;;;1.20;;
57573;SDS011;43409;48.858;21.906;2022-08-04T08:16:11;1.55;;;1.20;;
57573;SDS011;43409;48.858;21.906;2022-08-04T08:18:37;1.33;;;1.23;;
57573;SDS011;43409;48.858;21.906;2022-08-04T08:21:02;1.15;;;1.05;;
57573;SDS011;43409;48.858;21.906;2022-08-04T08:23:29;1.02;;;0.98;;
57573;SDS011;43409;48.858;21.906;2022-08-04T08:25:56;1.73;;;1.38;;
57573;SDS011;43409;48.858;21.906;2022-08-04T08:28:23;4.43;;;1.10;;
57573;SDS011;43409;48.858;21.906;2022-08-04T08:30:48;1.98;;;1.20;;
57573;SDS011;43409;48.858;21.906;2022-08-04T08:33:14;1.33;;;0.90;;
57573;SDS011;43409;48.858;21.906;2022-08-04T08:36:03;2.88;;;1.35;;
57573;SDS011;43409;48.858;21.906;2022-08-04T08:49:58;7.45;;;1.27;;
57573;SDS011;43409;48.858;21.906;2022-08-04T08:55:36;0.85;;;0.85;;
57573;SDS011;43409;48.858;21.906;2022-08-04T09:10:27;1.10;;;0.88;;
57573;SDS011;43409;48.858;21.906;2022-08-04T09:12:55;1.02;;;0.82;;
57573;SDS011;43409;48.858;21.906;2022-08-04T09:26:37;1.63;;;1.30;;
57573;SDS011;43409;48.858;21.906;2022-08-04T09:37:45;1.92;;;1.02;;
57573;SDS011;43409;48.858;21.906;2022-08-04T09:40:20;1.08;;;0.90;;
57573;SDS011;43409;48.858;21.906;2022-08-04T09:46:09;3.95;;;1.30;;
57573;SDS011;43409;48.858;21.906;2022-08-04T09:53:52;1.38;;;1.00;;
57573;SDS011;43409;48.858;21.906;2022-08-04T09:56:39;2.42;;;1.00;;
57573;SDS011;43409;48.858;21.906;2022-08-04T10:00:14;2.03;;;0.80;;
57573;SDS011;43409;48.858;21.906;2022-08-04T10:02:17;1.15;;;1.00;;
57573;SDS011;43409;48.858;21.906;2022-08-04T10:04:45;3.40;;;1.13;;
57573;SDS011;43409;48.858;21.906;2022-08-04T10:07:27;2.42;;;0.88;;
57573;SDS011;43409;48.858;21.906;2022-08-04T10:10:04;5.30;;;0.90;;
57573;SDS011;43409;48.858;21.906;2022-08-04T10:12:51;1.33;;;0.90;;
57573;SDS011;43409;48.858;21.906;2022-08-04T10:15:47;1.48;;;0.70;;
57573;SDS011;43409;48.858;21.906;2022-08-04T10:18:37;2.92;;;0.90;;
57573;SDS011;43409;48.858;21.906;2022-08-04T10:21:22;2.10;;;0.80;;
57573;SDS011;43409;48.858;21.906;2022-08-04T10:26:41;0.85;;;0.75;;
57573;SDS011;43409;48.858;21.906;2022-08-04T10:32:14;1.92;;;0.70;;
57573;SDS011;43409;48.858;21.906;2022-08-04T10:34:42;1.42;;;0.90;;
57573;SDS011;43409;48.858;21.906;2022-08-04T10:39:56;2.83;;;0.90;;
57573;SDS011;43409;48.858;21.906;2022-08-04T10:45:46;1.30;;;0.70;;
57573;SDS011;43409;48.858;21.906;2022-08-04T10:48:25;2.50;;;0.90;;
57573;SDS011;43409;48.858;21.906;2022-08-04T10:51:05;1.55;;;0.82;;
57573;SDS011;43409;48.858;21.906;2022-08-04T10:53:44;2.90;;;0.68;;
57573;SDS011;43409;48.858;21.906;2022-08-04T10:56:18;0.95;;;0.82;;
57573;SDS011;43409;48.858;21.906;2022-08-04T10:58:55;2.35;;;0.75;;
57573;SDS011;43409;48.858;21.906;2022-08-04T11:03:55;0.75;;;0.75;;
57573;SDS011;43409;48.858;21.906;2022-08-04T11:06:25;1.75;;;0.90;;
57573;SDS011;43409;48.858;21.906;2022-08-04T11:08:54;0.77;;;0.77;;
57573;SDS011;43409;48.858;21.906;2022-08-04T11:11:31;2.78;;;0.80;;
57573;SDS011;43409;48.858;21.906;2022-08-04T11:14:03;2.78;;;0.80;;
57573;SDS011;43409;48.858;21.906;2022-08-04T11:16:37;5.97;;;0.80;;
57573;SDS011;43409;48.858;21.906;2022-08-04T11:25:06;2.83;;;0.93;;
57573;SDS011;43409;48.858;21.906;2022-08-04T11:30:29;1.27;;;0.90;;
57573;SDS011;43409;48.858;21.906;2022-08-04T11:35:49;1.73;;;0.80;;
57573;SDS011;43409;48.858;21.906;2022-08-04T11:41:03;1.15;;;0.85;;
57573;SDS011;43409;48.858;21.906;2022-08-04T11:43:36;1.10;;;0.60;;
57573;SDS011;43409;48.858;21.906;2022-08-04T11:46:11;0.60;;;0.60;;
57573;SDS011;43409;48.858;21.906;2022-08-04T11:48:52;1.58;;;0.82;;
57573;SDS011;43409;48.858;21.906;2022-08-04T11:51:25;0.80;;;0.68;;
57573;SDS011;43409;48.858;21.906;2022-08-04T11:53:52;1.65;;;0.68;;
57573;SDS011;43409;48.858;21.906;2022-08-04T11:56:19;0.88;;;0.70;;
57573;SDS011;43409;48.858;21.906;2022-08-04T11:58:45;5.82;;;0.90;;
57573;SDS011;43409;48.858;21.906;2022-08-04T12:04:09;4.75;;;0.80;;
57573;SDS011;43409;48.858;21.906;2022-08-04T12:06:53;11.05;;;0.80;;
57573;SDS011;43409;48.858;21.906;2022-08-04T12:14:50;4.78;;;0.70;;
57573;SDS011;43409;48.858;21.906;2022-08-04T12:17:28;2.63;;;0.75;;
57573;SDS011;43409;48.858;21.906;2022-08-04T12:20:00;1.23;;;0.73;;
57573;SDS011;43409;48.858;21.906;2022-08-04T12:22:31;0.85;;;0.60;;
57573;SDS011;43409;48.858;21.906;2022-08-04T12:25:15;3.13;;;0.52;;
57573;SDS011;43409;48.858;21.906;2022-08-04T12:27:49;6.22;;;0.80;;
57573;SDS011;43409;48.858;21.906;2022-08-04T12:32:52;2.05;;;0.93;;
57573;SDS011;43409;48.858;21.906;2022-08-04T12:35:29;3.95;;;0.60;;
57573;SDS011;43409;48.858;21.906;2022-08-04T12:38:17;1.00;;;0.90;;
57573;SDS011;43409;48.858;21.906;2022-08-04T12:40:47;0.93;;;0.70;;
57573;SDS011;43409;48.858;21.906;2022-08-04T12:43:17;1.73;;;0.68;;
57573;SDS011;43409;48.858;21.906;2022-08-04T12:45:49;0.93;;;0.80;;
57573;SDS011;43409;48.858;21.906;2022-08-04T12:48:17;1.73;;;0.77;;
57573;SDS011;43409;48.858;21.906;2022-08-04T12:50:47;1.25;;;0.77;;
57573;SDS011;43409;48.858;21.906;2022-08-04T12:53:15;1.03;;;0.80;;
57573;SDS011;43409;48.858;21.906;2022-08-04T12:55:52;3.80;;;0.70;;
57573;SDS011;43409;48.858;21.906;2022-08-04T12:58:20;1.95;;;0.70;;
57573;SDS011;43409;48.858;21.906;2022-08-04T13:00:59;2.38;;;0.77;;
57573;SDS011;43409;48.858;21.906;2022-08-04T13:03:35;1.13;;;0.80;;
57573;SDS011;43409;48.858;21.906;2022-08-04T13:06:03;1.23;;;0.77;;
57573;SDS011;43409;48.858;21.906;2022-08-04T13:08:32;2.08;;;0.80;;
57573;SDS011;43409;48.858;21.906;2022-08-04T13:11:01;3.28;;;0.60;;
57573;SDS011;43409;48.858;21.906;2022-08-04T13:13:29;4.25;;;1.40;;
57573;SDS011;43409;48.858;21.906;2022-08-04T13:15:59;2.90;;;0.68;;
57573;SDS011;43409;48.858;21.906;2022-08-04T13:18:26;2.35;;;0.75;;
57573;SDS011;43409;48.858;21.906;2022-08-04T13:20:54;4.50;;;0.77;;
57573;SDS011;43409;48.858;21.906;2022-08-04T13:23:21;4.85;;;0.88;;
57573;SDS011;43409;48.858;21.906;2022-08-04T13:25:51;2.85;;;0.80;;
57573;SDS011;43409;48.858;21.906;2022-08-04T13:28:26;3.33;;;0.80;;
57573;SDS011;43409;48.858;21.906;2022-08-04T13:30:56;1.70;;;0.70;;
57573;SDS011;43409;48.858;21.906;2022-08-04T13:33:30;3.58;;;0.80;;
57573;SDS011;43409;48.858;21.906;2022-08-04T13:35:58;1.10;;;0.70;;
57573;SDS011;43409;48.858;21.906;2022-08-04T13:38:25;1.10;;;0.70;;
57573;SDS011;43409;48.858;21.906;2022-08-04T13:40:52;3.90;;;0.90;;
57573;SDS011;43409;48.858;21.906;2022-08-04T13:43:25;1.67;;;0.73;;
57573;SDS011;43409;48.858;21.906;2022-08-04T13:46:03;2.05;;;0.68;;
57573;SDS011;43409;48.858;21.906;2022-08-04T13:48:33;1.88;;;0.90;;
57573;SDS011;43409;48.858;21.906;2022-08-04T13:51:02;2.20;;;1.10;;
57573;SDS011;43409;48.858;21.906;2022-08-04T13:53:35;2.15;;;0.60;;
57573;SDS011;43409;48.858;21.906;2022-08-04T13:56:03;0.93;;;0.68;;
57573;SDS011;43409;48.858;21.906;2022-08-04T13:58:32;0.70;;;0.52;;
57573;SDS011;43409;48.858;21.906;2022-08-04T14:01:06;2.95;;;0.60;;
57573;SDS011;43409;48.858;21.906;2022-08-04T14:03:38;3.95;;;0.80;;
57573;SDS011;43409;48.858;21.906;2022-08-04T14:06:15;1.50;;;0.80;;
57573;SDS011;43409;48.858;21.906;2022-08-04T14:16:37;1.63;;;1.02;;
57573;SDS011;43409;48.858;21.906;2022-08-04T14:19:02;11.73;;;0.90;;
57573;SDS011;43409;48.858;21.906;2022-08-04T14:21:28;2.17;;;1.00;;
57573;SDS011;43409;48.858;21.906;2022-08-04T14:24:00;1.08;;;0.80;;
57573;SDS011;43409;48.858;21.906;2022-08-04T14:26:27;1.27;;;1.00;;
57573;SDS011;43409;48.858;21.906;2022-08-04T14:29:05;3.33;;;1.08;;
57573;SDS011;43409;48.858;21.906;2022-08-04T14:31:33;0.80;;;0.80;;
57573;SDS011;43409;48.858;21.906;2022-08-04T14:33:59;1.67;;;1.17;;
57573;SDS011;43409;48.858;21.906;2022-08-04T14:36:25;3.35;;;1.05;;
57573;SDS011;43409;48.858;21.906;2022-08-04T14:41:18;2.53;;;1.00;;
57573;SDS011;43409;48.858;21.906;2022-08-04T14:43:50;1.00;;;0.73;;
57573;SDS011;43409;48.858;21.906;2022-08-04T14:46:25;1.08;;;0.95;;
57573;SDS011;43409;48.858;21.906;2022-08-04T14:49:07;4.15;;;0.90;;
57573;SDS011;43409;48.858;21.906;2022-08-04T14:51:36;1.20;;;1.02;;
57573;SDS011;43409;48.858;21.906;2022-08-04T14:54:01;1.23;;;0.98;;
57573;SDS011;43409;48.858;21.906;2022-08-04T14:56:28;8.27;;;0.90;;
57573;SDS011;43409;48.858;21.906;2022-08-04T14:59:04;0.70;;;0.70;;
57573;SDS011;43409;48.858;21.906;2022-08-04T15:01:32;0.80;;;0.70;;
57573;SDS011;43409;48.858;21.906;2022-08-04T15:03:59;1.40;;;0.73;;
57573;SDS011;43409;48.858;21.906;2022-08-04T15:06:27;0.90;;;0.90;;
57573;SDS011;43409;48.858;21.906;2022-08-04T15:08:57;2.83;;;0.85;;
57573;SDS011;43409;48.858;21.906;2022-08-04T15:11:25;1.73;;;0.95;;
57573;SDS011;43409;48.858;21.906;2022-08-04T15:13:51;1.20;;;1.05;;
57573;SDS011;43409;48.858;21.906;2022-08-04T15:16:17;2.83;;;0.70;;
57573;SDS011;43409;48.858;21.906;2022-08-04T15:18:44;0.95;;;0.85;;
57573;SDS011;43409;48.858;21.906;2022-08-04T15:21:10;1.45;;;0.70;;
57573;SDS011;43409;48.858;21.906;2022-08-04T15:23:37;1.85;;;0.85;;
57573;SDS011;43409;48.858;21.906;2022-08-04T15:26:03;1.33;;;0.80;;
57573;SDS011;43409;48.858;21.906;2022-08-04T15:28:30;5.72;;;1.00;;
57573;SDS011;43409;48.858;21.906;2022-08-04T15:31:00;1.02;;;0.90;;
57573;SDS011;43409;48.858;21.906;2022-08-04T15:33:29;1.15;;;0.70;;
57573;SDS011;43409;48.858;21.906;2022-08-04T15:38:52;0.90;;;0.90;;
57573;SDS011;43409;48.858;21.906;2022-08-04T15:41:36;0.80;;;0.80;;
57573;SDS011;43409;48.858;21.906;2022-08-04T15:49:18;1.50;;;0.77;;
57573;SDS011;43409;48.858;21.906;2022-08-04T15:51:45;0.77;;;0.70;;
57573;SDS011;43409;48.858;21.906;2022-08-04T15:56:42;2.10;;;0.80;;
57573;SDS011;43409;48.858;21.906;2022-08-04T15:59:11;1.98;;;0.90;;
57573;SDS011;43409;48.858;21.906;2022-08-04T16:01:38;1.00;;;0.90;;
57573;SDS011;43409;48.858;21.906;2022-08-04T16:04:19;1.63;;;0.80;;
57573;SDS011;43409;48.858;21.906;2022-08-04T16:06:46;1.80;;;1.02;;
57573;SDS011;43409;48.858;21.906;2022-08-04T16:09:25;1.17;;;0.80;;
57573;SDS011;43409;48.858;21.906;2022-08-04T16:11:51;2.90;;;1.02;;
57573;SDS011;43409;48.858;21.906;2022-08-04T16:14:28;0.93;;;0.88;;
57573;SDS011;43409;48.858;21.906;2022-08-04T16:16:55;2.83;;;0.73;;
57573;SDS011;43409;48.858;21.906;2022-08-04T16:24:37;1.00;;;1.00;;
57573;SDS011;43409;48.858;21.906;2022-08-04T16:27:04;0.88;;;0.88;;
57573;SDS011;43409;48.858;21.906;2022-08-04T16:37:06;0.80;;;0.80;;
57573;SDS011;43409;48.858;21.906;2022-08-04T16:39:36;0.88;;;0.60;;
57573;SDS011;43409;48.858;21.906;2022-08-04T16:50:29;1.58;;;0.90;;
57573;SDS011;43409;48.858;21.906;2022-08-04T16:52:56;0.65;;;0.65;;
57573;SDS011;43409;48.858;21.906;2022-08-04T16:55:22;1.00;;;0.80;;
57573;SDS011;43409;48.858;21.906;2022-08-04T16:57:50;0.70;;;0.70;;
57573;SDS011;43409;48.858;21.906;2022-08-04T17:00:26;3.47;;;1.00;;
57573;SDS011;43409;48.858;21.906;2022-08-04T17:02:56;0.82;;;0.63;;
57573;SDS011;43409;48.858;21.906;2022-08-04T17:05:22;0.80;;;0.63;;
57573;SDS011;43409;48.858;21.906;2022-08-04T17:07:50;0.95;;;0.68;;
57573;SDS011;43409;48.858;21.906;2022-08-04T17:10:16;2.50;;;0.73;;
57573;SDS011;43409;48.858;21.906;2022-08-04T17:12:41;0.95;;;0.75;;
57573;SDS011;43409;48.858;21.906;2022-08-04T17:15:23;1.55;;;0.80;;
57573;SDS011;43409;48.858;21.906;2022-08-04T17:17:49;0.93;;;0.90;;
57573;SDS011;43409;48.858;21.906;2022-08-04T17:20:15;0.60;;;0.60;;
57573;SDS011;43409;48.858;21.906;2022-08-04T17:22:41;2.15;;;0.88;;
57573;SDS011;43409;48.858;21.906;2022-08-04T17:25:07;1.23;;;1.02;;
57573;SDS011;43409;48.858;21.906;2022-08-04T17:27:33;2.75;;;0.90;;
57573;SDS011;43409;48.858;21.906;2022-08-04T17:30:00;1.25;;;0.90;;
57573;SDS011;43409;48.858;21.906;2022-08-04T17:32:26;0.95;;;0.90;;
57573;SDS011;43409;48.858;21.906;2022-08-04T17:34:52;1.77;;;0.80;;
57573;SDS011;43409;48.858;21.906;2022-08-04T17:37:20;1.30;;;0.75;;
57573;SDS011;43409;48.858;21.906;2022-08-04T17:39:48;2.63;;;0.82;;
57573;SDS011;43409;48.858;21.906;2022-08-04T17:42:26;3.33;;;1.10;;
57573;SDS011;43409;48.858;21.906;2022-08-04T17:44:52;1.20;;;1.10;;
57573;SDS011;43409;48.858;21.906;2022-08-04T17:47:32;1.00;;;1.00;;
57573;SDS011;43409;48.858;21.906;2022-08-04T17:50:07;1.52;;;0.90;;
57573;SDS011;43409;48.858;21.906;2022-08-04T17:52:33;4.57;;;1.20;;
57573;SDS011;43409;48.858;21.906;2022-08-04T17:55:00;0.93;;;0.93;;
57573;SDS011;43409;48.858;21.906;2022-08-04T17:57:30;6.20;;;0.90;;
57573;SDS011;43409;48.858;21.906;2022-08-04T17:59:56;1.80;;;0.90;;
57573;SDS011;43409;48.858;21.906;2022-08-04T18:02:25;1.33;;;1.23;;
57573;SDS011;43409;48.858;21.906;2022-08-04T18:04:52;3.38;;;1.00;;
57573;SDS011;43409;48.858;21.906;2022-08-04T18:07:19;1.50;;;1.13;;
57573;SDS011;43409;48.858;21.906;2022-08-04T18:12:47;3.50;;;1.00;;
57573;SDS011;43409;48.858;21.906;2022-08-04T18:15:09;3.35;;;0.95;;
57573;SDS011;43409;48.858;21.906;2022-08-04T18:17:53;3.67;;;0.98;;
57573;SDS011;43409;48.858;21.906;2022-08-04T18:20:19;3.45;;;1.40;;
57573;SDS011;43409;48.858;21.906;2022-08-04T18:22:48;1.30;;;1.20;;
57573;SDS011;43409;48.858;21.906;2022-08-04T18:25:15;1.25;;;1.15;;
57573;SDS011;43409;48.858;21.906;2022-08-04T18:27:59;2.75;;;1.20;;
57573;SDS011;43409;48.858;21.906;2022-08-04T18:30:28;1.23;;;1.10;;
57573;SDS011;43409;48.858;21.906;2022-08-04T18:32:54;3.13;;;1.10;;
57573;SDS011;43409;48.858;21.906;2022-08-04T18:35:22;3.10;;;1.40;;
57573;SDS011;43409;48.858;21.906;2022-08-04T18:37:48;1.48;;;1.30;;
57573;SDS011;43409;48.858;21.906;2022-08-04T18:40:15;1.45;;;1.15;;
57573;SDS011;43409;48.858;21.906;2022-08-04T18:42:40;4.47;;;1.40;;
57573;SDS011;43409;48.858;21.906;2022-08-04T18:45:06;1.63;;;1.27;;
57573;SDS011;43409;48.858;21.906;2022-08-04T18:47:33;4.45;;;1.63;;
57573;SDS011;43409;48.858;21.906;2022-08-04T18:49:59;2.05;;;1.75;;
57573;SDS011;43409;48.858;21.906;2022-08-04T18:52:24;6.95;;;1.77;;
57573;SDS011;43409;48.858;21.906;2022-08-04T18:54:50;8.15;;;2.13;;
57573;SDS011;43409;48.858;21.906;2022-08-04T18:57:19;1.65;;;1.48;;
57573;SDS011;43409;48.858;21.906;2022-08-04T18:59:49;5.32;;;1.83;;
57573;SDS011;43409;48.858;21.906;2022-08-04T19:02:14;2.85;;;1.70;;
57573;SDS011;43409;48.858;21.906;2022-08-04T19:04:40;8.25;;;3.13;;
57573;SDS011;43409;48.858;21.906;2022-08-04T19:07:06;5.13;;;2.35;;
57573;SDS011;43409;48.858;21.906;2022-08-04T19:09:32;4.22;;;2.58;;
57573;SDS011;43409;48.858;21.906;2022-08-04T19:11:58;4.00;;;1.95;;
57573;SDS011;43409;48.858;21.906;2022-08-04T19:14:23;4.78;;;2.03;;
57573;SDS011;43409;48.858;21.906;2022-08-04T19:16:49;8.75;;;2.55;;
57573;SDS011;43409;48.858;21.906;2022-08-04T19:19:15;4.75;;;2.20;;
57573;SDS011;43409;48.858;21.906;2022-08-04T19:21:42;2.40;;;2.17;;
57573;SDS011;43409;48.858;21.906;2022-08-04T19:24:07;3.30;;;1.95;;
57573;SDS011;43409;48.858;21.906;2022-08-04T19:26:34;2.95;;;1.85;;
57573;SDS011;43409;48.858;21.906;2022-08-04T19:29:00;2.95;;;2.17;;
57573;SDS011;43409;48.858;21.906;2022-08-04T19:31:26;8.13;;;2.10;;
57573;SDS011;43409;48.858;21.906;2022-08-04T19:33:52;2.47;;;1.90;;
57573;SDS011;43409;48.858;21.906;2022-08-04T19:36:18;3.13;;;2.00;;
57573;SDS011;43409;48.858;21.906;2022-08-04T19:38:44;1.98;;;1.75;;
57573;SDS011;43409;48.858;21.906;2022-08-04T19:41:10;9.50;;;1.70;;
57573;SDS011;43409;48.858;21.906;2022-08-04T19:43:36;3.55;;;1.60;;